sensor_id;sensor_type;location;lat;lon;timestamp;temperature;humidity
33761;DHT22;20084;47.912;19.044;2022-07-24T00:00:43;25.00;86.30
33761;DHT22;20084;47.912;19.044;2022-07-24T00:03:08;24.90;86.20
33761;DHT22;20084;47.912;19.044;2022-07-24T00:05:34;25.00;85.70
33761;DHT22;20084;47.912;19.044;2022-07-24T00:08:00;25.00;86.20
33761;DHT22;20084;47.912;19.044;2022-07-24T00:10:26;25.00;85.10
33761;DHT22;20084;47.912;19.044;2022-07-24T00:12:52;25.10;84.90
33761;DHT22;20084;47.912;19.044;2022-07-24T00:15:17;25.00;84.50
33761;DHT22;20084;47.912;19.044;2022-07-24T00:17:43;25.00;84.30
33761;DHT22;20084;47.912;19.044;2022-07-24T00:20:09;25.10;84.50
33761;DHT22;20084;47.912;19.044;2022-07-24T00:22:35;25.10;84.10
33761;DHT22;20084;47.912;19.044;2022-07-24T00:25:01;25.20;83.50
33761;DHT22;20084;47.912;19.044;2022-07-24T00:27:27;25.30;83.10
33761;DHT22;20084;47.912;19.044;2022-07-24T00:29:52;25.40;82.70
33761;DHT22;20084;47.912;19.044;2022-07-24T00:32:18;25.50;82.70
33761;DHT22;20084;47.912;19.044;2022-07-24T00:34:43;25.60;83.60
33761;DHT22;20084;47.912;19.044;2022-07-24T00:37:09;25.60;83.50
33761;DHT22;20084;47.912;19.044;2022-07-24T00:39:35;25.60;83.10
33761;DHT22;20084;47.912;19.044;2022-07-24T00:42:00;25.60;84.10
33761;DHT22;20084;47.912;19.044;2022-07-24T00:44:26;25.60;84.80
33761;DHT22;20084;47.912;19.044;2022-07-24T00:46:52;25.40;85.00
33761;DHT22;20084;47.912;19.044;2022-07-24T00:49:19;25.30;85.00
33761;DHT22;20084;47.912;19.044;2022-07-24T00:51:47;25.40;84.80
33761;DHT22;20084;47.912;19.044;2022-07-24T00:54:13;25.40;85.00
33761;DHT22;20084;47.912;19.044;2022-07-24T00:56:45;25.40;84.80
33761;DHT22;20084;47.912;19.044;2022-07-24T00:59:11;25.40;84.50
33761;DHT22;20084;47.912;19.044;2022-07-24T01:01:37;25.50;84.60
33761;DHT22;20084;47.912;19.044;2022-07-24T01:04:03;25.50;85.00
33761;DHT22;20084;47.912;19.044;2022-07-24T01:06:28;25.50;85.00
33761;DHT22;20084;47.912;19.044;2022-07-24T01:08:54;25.50;85.30
33761;DHT22;20084;47.912;19.044;2022-07-24T01:11:21;25.60;85.50
33761;DHT22;20084;47.912;19.044;2022-07-24T01:13:48;25.60;85.40
33761;DHT22;20084;47.912;19.044;2022-07-24T01:16:15;25.60;84.20
33761;DHT22;20084;47.912;19.044;2022-07-24T01:18:41;25.70;83.60
33761;DHT22;20084;47.912;19.044;2022-07-24T01:21:07;25.80;83.50
33761;DHT22;20084;47.912;19.044;2022-07-24T01:23:33;25.70;84.00
33761;DHT22;20084;47.912;19.044;2022-07-24T01:26:00;25.60;84.10
33761;DHT22;20084;47.912;19.044;2022-07-24T01:28:26;25.60;84.20
33761;DHT22;20084;47.912;19.044;2022-07-24T01:30:52;25.60;84.10
33761;DHT22;20084;47.912;19.044;2022-07-24T01:33:18;25.60;84.10
33761;DHT22;20084;47.912;19.044;2022-07-24T01:35:43;25.60;84.50
33761;DHT22;20084;47.912;19.044;2022-07-24T01:38:10;25.60;84.00
33761;DHT22;20084;47.912;19.044;2022-07-24T01:40:39;25.60;84.40
33761;DHT22;20084;47.912;19.044;2022-07-24T01:43:05;25.60;84.80
33761;DHT22;20084;47.912;19.044;2022-07-24T01:45:31;25.60;85.10
33761;DHT22;20084;47.912;19.044;2022-07-24T01:47:57;25.60;85.20
33761;DHT22;20084;47.912;19.044;2022-07-24T01:50:23;25.60;85.50
33761;DHT22;20084;47.912;19.044;2022-07-24T01:52:48;25.60;85.70
33761;DHT22;20084;47.912;19.044;2022-07-24T01:55:14;25.60;85.70
33761;DHT22;20084;47.912;19.044;2022-07-24T01:57:40;25.60;85.90
33761;DHT22;20084;47.912;19.044;2022-07-24T02:00:07;25.60;85.70
33761;DHT22;20084;47.912;19.044;2022-07-24T02:02:39;25.60;85.80
33761;DHT22;20084;47.912;19.044;2022-07-24T02:05:05;25.60;86.00
33761;DHT22;20084;47.912;19.044;2022-07-24T02:07:31;25.60;86.10
33761;DHT22;20084;47.912;19.044;2022-07-24T02:09:57;25.60;85.90
33761;DHT22;20084;47.912;19.044;2022-07-24T02:12:22;25.60;85.70
33761;DHT22;20084;47.912;19.044;2022-07-24T02:14:48;25.70;85.70
33761;DHT22;20084;47.912;19.044;2022-07-24T02:17:13;25.70;85.60
33761;DHT22;20084;47.912;19.044;2022-07-24T02:19:39;25.70;85.50
33761;DHT22;20084;47.912;19.044;2022-07-24T02:22:05;25.70;85.60
33761;DHT22;20084;47.912;19.044;2022-07-24T02:24:30;25.80;86.20
33761;DHT22;20084;47.912;19.044;2022-07-24T02:26:56;25.80;87.00
33761;DHT22;20084;47.912;19.044;2022-07-24T02:29:21;25.80;87.40
33761;DHT22;20084;47.912;19.044;2022-07-24T02:31:47;25.70;87.80
33761;DHT22;20084;47.912;19.044;2022-07-24T02:34:13;25.60;87.70
33761;DHT22;20084;47.912;19.044;2022-07-24T02:36:38;25.60;87.50
33761;DHT22;20084;47.912;19.044;2022-07-24T02:39:04;25.50;87.40
33761;DHT22;20084;47.912;19.044;2022-07-24T02:41:30;25.50;87.20
33761;DHT22;20084;47.912;19.044;2022-07-24T02:43:55;25.50;87.00
33761;DHT22;20084;47.912;19.044;2022-07-24T02:46:21;25.50;87.20
33761;DHT22;20084;47.912;19.044;2022-07-24T02:48:46;25.40;87.20
33761;DHT22;20084;47.912;19.044;2022-07-24T02:51:12;25.40;87.60
33761;DHT22;20084;47.912;19.044;2022-07-24T02:53:38;25.40;88.70
33761;DHT22;20084;47.912;19.044;2022-07-24T02:56:04;25.50;88.40
33761;DHT22;20084;47.912;19.044;2022-07-24T02:58:30;25.60;88.00
33761;DHT22;20084;47.912;19.044;2022-07-24T03:00:56;25.60;87.90
33761;DHT22;20084;47.912;19.044;2022-07-24T03:03:22;25.60;88.00
33761;DHT22;20084;47.912;19.044;2022-07-24T03:05:48;25.60;88.50
33761;DHT22;20084;47.912;19.044;2022-07-24T03:08:13;25.60;88.70
33761;DHT22;20084;47.912;19.044;2022-07-24T03:10:39;25.60;88.80
33761;DHT22;20084;47.912;19.044;2022-07-24T03:13:04;25.60;88.90
33761;DHT22;20084;47.912;19.044;2022-07-24T03:15:31;25.60;88.30
33761;DHT22;20084;47.912;19.044;2022-07-24T03:17:56;25.60;88.50
33761;DHT22;20084;47.912;19.044;2022-07-24T03:20:24;25.60;88.30
33761;DHT22;20084;47.912;19.044;2022-07-24T03:22:50;25.50;88.50
33761;DHT22;20084;47.912;19.044;2022-07-24T03:25:17;25.50;89.20
33761;DHT22;20084;47.912;19.044;2022-07-24T03:27:43;25.50;89.50
33761;DHT22;20084;47.912;19.044;2022-07-24T03:30:09;25.40;88.80
33761;DHT22;20084;47.912;19.044;2022-07-24T03:32:35;25.50;89.00
33761;DHT22;20084;47.912;19.044;2022-07-24T03:35:01;25.50;89.10
33761;DHT22;20084;47.912;19.044;2022-07-24T03:37:27;25.40;89.40
33761;DHT22;20084;47.912;19.044;2022-07-24T03:39:54;25.40;90.00
33761;DHT22;20084;47.912;19.044;2022-07-24T03:42:19;25.30;90.00
33761;DHT22;20084;47.912;19.044;2022-07-24T03:44:45;25.30;90.10
33761;DHT22;20084;47.912;19.044;2022-07-24T03:47:11;25.30;90.00
33761;DHT22;20084;47.912;19.044;2022-07-24T03:49:36;25.30;90.00
33761;DHT22;20084;47.912;19.044;2022-07-24T03:52:02;25.30;90.50
33761;DHT22;20084;47.912;19.044;2022-07-24T03:54:28;25.30;90.60
33761;DHT22;20084;47.912;19.044;2022-07-24T03:56:54;25.30;90.90
33761;DHT22;20084;47.912;19.044;2022-07-24T03:59:19;25.30;91.10
33761;DHT22;20084;47.912;19.044;2022-07-24T04:01:45;25.30;90.10
33761;DHT22;20084;47.912;19.044;2022-07-24T04:04:11;25.20;90.40
33761;DHT22;20084;47.912;19.044;2022-07-24T04:06:36;25.20;90.20
33761;DHT22;20084;47.912;19.044;2022-07-24T04:09:03;25.20;90.20
33761;DHT22;20084;47.912;19.044;2022-07-24T04:11:29;25.30;90.20
33761;DHT22;20084;47.912;19.044;2022-07-24T04:13:55;25.20;90.20
33761;DHT22;20084;47.912;19.044;2022-07-24T04:16:21;25.20;90.50
33761;DHT22;20084;47.912;19.044;2022-07-24T04:18:46;25.30;90.60
33761;DHT22;20084;47.912;19.044;2022-07-24T04:21:12;25.30;90.70
33761;DHT22;20084;47.912;19.044;2022-07-24T04:23:38;25.20;90.50
33761;DHT22;20084;47.912;19.044;2022-07-24T04:26:04;25.20;90.50
33761;DHT22;20084;47.912;19.044;2022-07-24T04:28:30;25.20;90.40
33761;DHT22;20084;47.912;19.044;2022-07-24T04:30:56;25.20;90.30
33761;DHT22;20084;47.912;19.044;2022-07-24T04:33:22;25.20;90.40
33761;DHT22;20084;47.912;19.044;2022-07-24T04:35:47;25.20;90.30
33761;DHT22;20084;47.912;19.044;2022-07-24T04:38:13;25.20;90.30
33761;DHT22;20084;47.912;19.044;2022-07-24T04:40:39;25.20;90.20
33761;DHT22;20084;47.912;19.044;2022-07-24T04:43:05;25.20;89.90
33761;DHT22;20084;47.912;19.044;2022-07-24T04:45:31;25.30;90.10
33761;DHT22;20084;47.912;19.044;2022-07-24T04:47:56;25.30;90.30
33761;DHT22;20084;47.912;19.044;2022-07-24T04:50:22;25.30;90.10
33761;DHT22;20084;47.912;19.044;2022-07-24T04:52:48;25.30;90.30
33761;DHT22;20084;47.912;19.044;2022-07-24T04:55:13;25.30;90.00
33761;DHT22;20084;47.912;19.044;2022-07-24T04:57:39;25.40;90.00
33761;DHT22;20084;47.912;19.044;2022-07-24T05:00:07;25.40;90.10
33761;DHT22;20084;47.912;19.044;2022-07-24T05:02:33;25.40;89.60
33761;DHT22;20084;47.912;19.044;2022-07-24T05:04:59;25.50;89.10
33761;DHT22;20084;47.912;19.044;2022-07-24T05:07:25;25.60;88.80
33761;DHT22;20084;47.912;19.044;2022-07-24T05:09:50;25.70;87.70
33761;DHT22;20084;47.912;19.044;2022-07-24T05:12:16;25.80;87.50
33761;DHT22;20084;47.912;19.044;2022-07-24T05:14:42;25.80;88.20
33761;DHT22;20084;47.912;19.044;2022-07-24T05:17:07;25.80;88.10
33761;DHT22;20084;47.912;19.044;2022-07-24T05:19:33;26.00;87.30
33761;DHT22;20084;47.912;19.044;2022-07-24T05:21:59;26.00;87.60
33761;DHT22;20084;47.912;19.044;2022-07-24T05:24:24;25.90;87.00
33761;DHT22;20084;47.912;19.044;2022-07-24T05:26:53;25.80;89.20
33761;DHT22;20084;47.912;19.044;2022-07-24T05:29:18;25.80;89.00
33761;DHT22;20084;47.912;19.044;2022-07-24T05:31:44;25.70;90.00
33761;DHT22;20084;47.912;19.044;2022-07-24T05:34:10;25.80;90.00
33761;DHT22;20084;47.912;19.044;2022-07-24T05:36:35;25.80;89.40
33761;DHT22;20084;47.912;19.044;2022-07-24T05:39:01;25.90;89.10
33761;DHT22;20084;47.912;19.044;2022-07-24T05:41:27;26.00;89.50
33761;DHT22;20084;47.912;19.044;2022-07-24T05:43:53;26.00;89.20
33761;DHT22;20084;47.912;19.044;2022-07-24T05:46:19;26.10;88.40
33761;DHT22;20084;47.912;19.044;2022-07-24T05:48:45;26.10;87.80
33761;DHT22;20084;47.912;19.044;2022-07-24T05:51:11;26.10;88.60
33761;DHT22;20084;47.912;19.044;2022-07-24T05:53:36;26.20;87.70
33761;DHT22;20084;47.912;19.044;2022-07-24T05:56:03;26.20;88.80
33761;DHT22;20084;47.912;19.044;2022-07-24T05:58:29;26.20;89.50
33761;DHT22;20084;47.912;19.044;2022-07-24T06:00:54;26.20;87.60
33761;DHT22;20084;47.912;19.044;2022-07-24T06:03:20;26.20;86.20
33761;DHT22;20084;47.912;19.044;2022-07-24T06:05:46;26.20;85.80
33761;DHT22;20084;47.912;19.044;2022-07-24T06:08:11;26.20;87.10
33761;DHT22;20084;47.912;19.044;2022-07-24T06:10:37;26.30;86.90
33761;DHT22;20084;47.912;19.044;2022-07-24T06:13:03;26.20;86.00
33761;DHT22;20084;47.912;19.044;2022-07-24T06:15:29;26.20;85.00
33761;DHT22;20084;47.912;19.044;2022-07-24T06:17:55;26.20;87.10
33761;DHT22;20084;47.912;19.044;2022-07-24T06:20:20;26.20;86.40
33761;DHT22;20084;47.912;19.044;2022-07-24T06:22:46;26.20;86.50
33761;DHT22;20084;47.912;19.044;2022-07-24T06:25:12;26.20;85.10
33761;DHT22;20084;47.912;19.044;2022-07-24T06:27:46;26.00;87.60
33761;DHT22;20084;47.912;19.044;2022-07-24T06:30:27;26.10;86.00
33761;DHT22;20084;47.912;19.044;2022-07-24T06:32:54;26.20;85.70
33761;DHT22;20084;47.912;19.044;2022-07-24T06:35:20;26.40;85.00
33761;DHT22;20084;47.912;19.044;2022-07-24T06:37:46;26.70;85.60
33761;DHT22;20084;47.912;19.044;2022-07-24T06:40:12;26.80;85.30
33761;DHT22;20084;47.912;19.044;2022-07-24T06:42:38;27.00;85.00
33761;DHT22;20084;47.912;19.044;2022-07-24T06:45:04;27.00;81.70
33761;DHT22;20084;47.912;19.044;2022-07-24T06:47:30;27.00;82.50
33761;DHT22;20084;47.912;19.044;2022-07-24T06:49:56;27.00;82.70
33761;DHT22;20084;47.912;19.044;2022-07-24T06:52:22;27.00;80.80
33761;DHT22;20084;47.912;19.044;2022-07-24T06:54:48;27.10;81.20
33761;DHT22;20084;47.912;19.044;2022-07-24T06:57:14;27.10;81.60
33761;DHT22;20084;47.912;19.044;2022-07-24T06:59:40;27.10;81.40
33761;DHT22;20084;47.912;19.044;2022-07-24T07:02:06;27.10;81.40
33761;DHT22;20084;47.912;19.044;2022-07-24T07:04:32;27.20;82.40
33761;DHT22;20084;47.912;19.044;2022-07-24T07:06:57;27.20;82.00
33761;DHT22;20084;47.912;19.044;2022-07-24T07:09:23;27.30;81.90
33761;DHT22;20084;47.912;19.044;2022-07-24T07:11:49;27.40;80.50
33761;DHT22;20084;47.912;19.044;2022-07-24T07:14:14;27.40;81.10
33761;DHT22;20084;47.912;19.044;2022-07-24T07:16:40;27.60;82.00
33761;DHT22;20084;47.912;19.044;2022-07-24T07:19:05;27.70;80.60
33761;DHT22;20084;47.912;19.044;2022-07-24T07:21:31;27.80;80.10
33761;DHT22;20084;47.912;19.044;2022-07-24T07:23:57;27.90;79.00
33761;DHT22;20084;47.912;19.044;2022-07-24T07:26:22;27.90;78.30
33761;DHT22;20084;47.912;19.044;2022-07-24T07:28:48;28.10;76.80
33761;DHT22;20084;47.912;19.044;2022-07-24T07:31:14;28.20;75.90
33761;DHT22;20084;47.912;19.044;2022-07-24T07:33:39;28.30;74.50
33761;DHT22;20084;47.912;19.044;2022-07-24T07:36:05;28.40;72.60
33761;DHT22;20084;47.912;19.044;2022-07-24T07:38:31;28.40;70.90
33761;DHT22;20084;47.912;19.044;2022-07-24T07:40:57;28.30;68.30
33761;DHT22;20084;47.912;19.044;2022-07-24T07:43:23;28.40;69.60
33761;DHT22;20084;47.912;19.044;2022-07-24T07:45:49;28.50;68.40
33761;DHT22;20084;47.912;19.044;2022-07-24T07:48:16;28.50;66.60
33761;DHT22;20084;47.912;19.044;2022-07-24T07:50:41;28.50;67.10
33761;DHT22;20084;47.912;19.044;2022-07-24T07:53:07;28.50;66.40
33761;DHT22;20084;47.912;19.044;2022-07-24T07:55:33;28.60;67.80
33761;DHT22;20084;47.912;19.044;2022-07-24T07:58:00;28.70;66.40
33761;DHT22;20084;47.912;19.044;2022-07-24T08:00:25;28.80;65.50
33761;DHT22;20084;47.912;19.044;2022-07-24T08:02:51;28.90;64.30
33761;DHT22;20084;47.912;19.044;2022-07-24T08:05:17;28.80;64.20
33761;DHT22;20084;47.912;19.044;2022-07-24T08:07:42;28.90;63.90
33761;DHT22;20084;47.912;19.044;2022-07-24T08:10:08;28.80;64.70
33761;DHT22;20084;47.912;19.044;2022-07-24T08:12:34;28.90;63.90
33761;DHT22;20084;47.912;19.044;2022-07-24T08:15:00;28.80;63.60
33761;DHT22;20084;47.912;19.044;2022-07-24T08:17:25;28.80;64.20
33761;DHT22;20084;47.912;19.044;2022-07-24T08:19:51;29.00;65.80
33761;DHT22;20084;47.912;19.044;2022-07-24T08:22:17;29.20;61.20
33761;DHT22;20084;47.912;19.044;2022-07-24T08:24:42;29.10;62.90
33761;DHT22;20084;47.912;19.044;2022-07-24T08:27:08;29.10;62.20
33761;DHT22;20084;47.912;19.044;2022-07-24T08:29:33;29.10;61.30
33761;DHT22;20084;47.912;19.044;2022-07-24T08:31:59;29.00;61.80
33761;DHT22;20084;47.912;19.044;2022-07-24T08:34:25;29.00;63.80
33761;DHT22;20084;47.912;19.044;2022-07-24T08:36:51;29.10;64.10
33761;DHT22;20084;47.912;19.044;2022-07-24T08:39:17;29.20;64.20
33761;DHT22;20084;47.912;19.044;2022-07-24T08:41:44;29.30;65.40
33761;DHT22;20084;47.912;19.044;2022-07-24T08:44:11;29.40;63.70
33761;DHT22;20084;47.912;19.044;2022-07-24T08:46:41;29.50;64.30
33761;DHT22;20084;47.912;19.044;2022-07-24T08:49:10;29.50;64.30
33761;DHT22;20084;47.912;19.044;2022-07-24T08:51:38;29.50;64.60
33761;DHT22;20084;47.912;19.044;2022-07-24T08:54:05;29.60;63.70
33761;DHT22;20084;47.912;19.044;2022-07-24T08:56:32;29.60;62.90
33761;DHT22;20084;47.912;19.044;2022-07-24T08:58:59;29.60;63.20
33761;DHT22;20084;47.912;19.044;2022-07-24T09:01:25;29.60;62.00
33761;DHT22;20084;47.912;19.044;2022-07-24T09:03:51;29.60;64.00
33761;DHT22;20084;47.912;19.044;2022-07-24T09:06:17;29.60;63.50
33761;DHT22;20084;47.912;19.044;2022-07-24T09:08:56;29.70;61.90
33761;DHT22;20084;47.912;19.044;2022-07-24T09:11:22;29.70;61.10
33761;DHT22;20084;47.912;19.044;2022-07-24T09:13:51;29.70;61.10
33761;DHT22;20084;47.912;19.044;2022-07-24T09:16:35;29.70;61.80
33761;DHT22;20084;47.912;19.044;2022-07-24T09:19:06;29.80;61.50
33761;DHT22;20084;47.912;19.044;2022-07-24T09:21:38;29.80;61.40
33761;DHT22;20084;47.912;19.044;2022-07-24T09:24:24;29.80;60.70
33761;DHT22;20084;47.912;19.044;2022-07-24T09:26:55;29.80;59.10
33761;DHT22;20084;47.912;19.044;2022-07-24T09:29:22;29.80;56.70
33761;DHT22;20084;47.912;19.044;2022-07-24T09:31:59;29.60;57.50
33761;DHT22;20084;47.912;19.044;2022-07-24T09:34:28;29.50;58.70
33761;DHT22;20084;47.912;19.044;2022-07-24T09:37:06;29.50;59.60
33761;DHT22;20084;47.912;19.044;2022-07-24T09:39:35;29.60;58.30
33761;DHT22;20084;47.912;19.044;2022-07-24T09:42:03;29.60;58.50
33761;DHT22;20084;47.912;19.044;2022-07-24T09:44:29;29.70;56.20
33761;DHT22;20084;47.912;19.044;2022-07-24T09:47:01;29.70;56.00
33761;DHT22;20084;47.912;19.044;2022-07-24T09:49:28;29.70;52.30
33761;DHT22;20084;47.912;19.044;2022-07-24T09:52:12;29.70;54.60
33761;DHT22;20084;47.912;19.044;2022-07-24T09:59:53;30.10;55.10
33761;DHT22;20084;47.912;19.044;2022-07-24T10:02:22;30.30;56.40
33761;DHT22;20084;47.912;19.044;2022-07-24T10:04:49;30.30;53.80
33761;DHT22;20084;47.912;19.044;2022-07-24T10:07:17;30.10;54.80
33761;DHT22;20084;47.912;19.044;2022-07-24T10:09:57;30.10;55.00
33761;DHT22;20084;47.912;19.044;2022-07-24T10:12:28;30.20;53.50
33761;DHT22;20084;47.912;19.044;2022-07-24T10:14:55;30.30;53.20
33761;DHT22;20084;47.912;19.044;2022-07-24T10:19:57;30.20;50.90
33761;DHT22;20084;47.912;19.044;2022-07-24T10:22:34;30.10;51.60
33761;DHT22;20084;47.912;19.044;2022-07-24T10:25:05;30.00;53.30
33761;DHT22;20084;47.912;19.044;2022-07-24T10:27:34;30.10;53.80
33761;DHT22;20084;47.912;19.044;2022-07-24T10:30:07;30.40;51.80
33761;DHT22;20084;47.912;19.044;2022-07-24T10:32:34;30.40;48.10
33761;DHT22;20084;47.912;19.044;2022-07-24T10:35:13;30.30;48.70
33761;DHT22;20084;47.912;19.044;2022-07-24T10:37:48;30.20;48.90
33761;DHT22;20084;47.912;19.044;2022-07-24T10:40:27;30.30;50.70
33761;DHT22;20084;47.912;19.044;2022-07-24T10:43:07;30.40;50.30
33761;DHT22;20084;47.912;19.044;2022-07-24T10:53:53;30.50;48.70
33761;DHT22;20084;47.912;19.044;2022-07-24T10:56:37;30.60;47.90
33761;DHT22;20084;47.912;19.044;2022-07-24T10:59:08;30.50;46.40
33761;DHT22;20084;47.912;19.044;2022-07-24T11:01:43;30.40;46.30
33761;DHT22;20084;47.912;19.044;2022-07-24T11:06:49;30.60;48.60
33761;DHT22;20084;47.912;19.044;2022-07-24T11:09:18;30.70;46.40
33761;DHT22;20084;47.912;19.044;2022-07-24T11:14:23;30.50;47.30
33761;DHT22;20084;47.912;19.044;2022-07-24T11:16:49;30.40;47.10
33761;DHT22;20084;47.912;19.044;2022-07-24T11:21:43;30.50;48.10
33761;DHT22;20084;47.912;19.044;2022-07-24T11:29:24;30.70;48.10
33761;DHT22;20084;47.912;19.044;2022-07-24T11:31:59;30.80;47.00
33761;DHT22;20084;47.912;19.044;2022-07-24T11:34:26;30.90;45.50
33761;DHT22;20084;47.912;19.044;2022-07-24T11:36:54;30.80;47.00
33761;DHT22;20084;47.912;19.044;2022-07-24T11:39:36;30.70;46.90
33761;DHT22;20084;47.912;19.044;2022-07-24T11:42:05;30.80;46.50
33761;DHT22;20084;47.912;19.044;2022-07-24T11:44:40;30.80;46.40
33761;DHT22;20084;47.912;19.044;2022-07-24T11:49:44;30.90;47.50
33761;DHT22;20084;47.912;19.044;2022-07-24T11:52:14;30.90;48.20
33761;DHT22;20084;47.912;19.044;2022-07-24T11:54:41;30.90;47.20
33761;DHT22;20084;47.912;19.044;2022-07-24T11:59:45;30.80;47.30
33761;DHT22;20084;47.912;19.044;2022-07-24T12:02:11;30.70;46.90
33761;DHT22;20084;47.912;19.044;2022-07-24T12:04:39;30.80;47.70
33761;DHT22;20084;47.912;19.044;2022-07-24T12:07:06;31.00;46.80
33761;DHT22;20084;47.912;19.044;2022-07-24T12:09:42;31.10;47.00
33761;DHT22;20084;47.912;19.044;2022-07-24T12:15:03;31.30;45.40
33761;DHT22;20084;47.912;19.044;2022-07-24T12:17:30;31.30;45.20
33761;DHT22;20084;47.912;19.044;2022-07-24T12:19:57;31.40;45.50
33761;DHT22;20084;47.912;19.044;2022-07-24T12:22:26;31.40;46.60
33761;DHT22;20084;47.912;19.044;2022-07-24T12:24:53;31.40;45.10
33761;DHT22;20084;47.912;19.044;2022-07-24T12:27:37;31.40;44.50
33761;DHT22;20084;47.912;19.044;2022-07-24T12:30:28;31.40;45.40
33761;DHT22;20084;47.912;19.044;2022-07-24T12:33:01;31.30;44.00
33761;DHT22;20084;47.912;19.044;2022-07-24T12:35:29;31.20;45.90
33761;DHT22;20084;47.912;19.044;2022-07-24T12:37:56;31.40;44.40
33761;DHT22;20084;47.912;19.044;2022-07-24T12:40:29;31.30;43.60
33761;DHT22;20084;47.912;19.044;2022-07-24T12:43:04;31.40;44.00
33761;DHT22;20084;47.912;19.044;2022-07-24T12:45:32;31.30;43.20
33761;DHT22;20084;47.912;19.044;2022-07-24T12:48:20;31.30;43.20
33761;DHT22;20084;47.912;19.044;2022-07-24T12:51:08;31.30;44.60
33761;DHT22;20084;47.912;19.044;2022-07-24T12:53:37;31.50;44.10
33761;DHT22;20084;47.912;19.044;2022-07-24T12:56:09;31.50;42.90
33761;DHT22;20084;47.912;19.044;2022-07-24T13:01:12;31.40;44.70
33761;DHT22;20084;47.912;19.044;2022-07-24T13:03:38;31.50;44.80
33761;DHT22;20084;47.912;19.044;2022-07-24T13:06:04;31.40;42.60
33761;DHT22;20084;47.912;19.044;2022-07-24T13:08:29;31.30;43.90
33761;DHT22;20084;47.912;19.044;2022-07-24T13:10:55;31.40;42.80
33761;DHT22;20084;47.912;19.044;2022-07-24T13:13:22;31.40;42.80
33761;DHT22;20084;47.912;19.044;2022-07-24T13:15:48;31.40;43.40
33761;DHT22;20084;47.912;19.044;2022-07-24T13:18:13;31.60;43.80
33761;DHT22;20084;47.912;19.044;2022-07-24T13:20:39;31.50;42.30
33761;DHT22;20084;47.912;19.044;2022-07-24T13:23:04;31.60;41.80
33761;DHT22;20084;47.912;19.044;2022-07-24T13:25:30;31.50;41.70
33761;DHT22;20084;47.912;19.044;2022-07-24T13:27:56;31.40;42.60
33761;DHT22;20084;47.912;19.044;2022-07-24T13:30:21;31.50;41.90
33761;DHT22;20084;47.912;19.044;2022-07-24T13:32:47;31.50;42.40
33761;DHT22;20084;47.912;19.044;2022-07-24T13:35:12;31.70;42.50
33761;DHT22;20084;47.912;19.044;2022-07-24T13:37:38;31.80;41.70
33761;DHT22;20084;47.912;19.044;2022-07-24T13:40:04;31.50;40.90
33761;DHT22;20084;47.912;19.044;2022-07-24T13:42:32;31.50;41.20
33761;DHT22;20084;47.912;19.044;2022-07-24T13:44:58;31.50;41.20
33761;DHT22;20084;47.912;19.044;2022-07-24T13:47:24;31.60;39.90
33761;DHT22;20084;47.912;19.044;2022-07-24T13:49:49;31.40;40.70
33761;DHT22;20084;47.912;19.044;2022-07-24T13:52:15;31.50;41.90
33761;DHT22;20084;47.912;19.044;2022-07-24T13:54:41;31.50;40.80
33761;DHT22;20084;47.912;19.044;2022-07-24T13:57:07;31.50;40.90
33761;DHT22;20084;47.912;19.044;2022-07-24T13:59:33;31.60;41.10
33761;DHT22;20084;47.912;19.044;2022-07-24T14:01:59;31.70;40.50
33761;DHT22;20084;47.912;19.044;2022-07-24T14:04:24;31.60;39.70
33761;DHT22;20084;47.912;19.044;2022-07-24T14:06:51;31.50;39.70
33761;DHT22;20084;47.912;19.044;2022-07-24T14:09:17;31.40;40.20
33761;DHT22;20084;47.912;19.044;2022-07-24T14:11:43;31.40;39.30
33761;DHT22;20084;47.912;19.044;2022-07-24T14:14:08;31.40;40.60
33761;DHT22;20084;47.912;19.044;2022-07-24T14:16:34;31.50;40.80
33761;DHT22;20084;47.912;19.044;2022-07-24T14:18:59;31.40;40.00
33761;DHT22;20084;47.912;19.044;2022-07-24T14:21:25;31.40;39.60
33761;DHT22;20084;47.912;19.044;2022-07-24T14:23:51;31.40;42.00
33761;DHT22;20084;47.912;19.044;2022-07-24T14:26:16;31.60;41.60
33761;DHT22;20084;47.912;19.044;2022-07-24T14:28:42;31.70;40.60
33761;DHT22;20084;47.912;19.044;2022-07-24T14:31:08;31.70;40.60
33761;DHT22;20084;47.912;19.044;2022-07-24T14:33:33;31.50;40.60
33761;DHT22;20084;47.912;19.044;2022-07-24T14:36:00;31.40;40.10
33761;DHT22;20084;47.912;19.044;2022-07-24T14:38:25;31.50;40.30
33761;DHT22;20084;47.912;19.044;2022-07-24T14:40:51;31.50;40.70
33761;DHT22;20084;47.912;19.044;2022-07-24T14:43:17;31.50;41.40
33761;DHT22;20084;47.912;19.044;2022-07-24T14:45:43;31.50;39.50
33761;DHT22;20084;47.912;19.044;2022-07-24T14:48:08;31.50;40.10
33761;DHT22;20084;47.912;19.044;2022-07-24T14:50:34;31.50;40.40
33761;DHT22;20084;47.912;19.044;2022-07-24T14:52:59;31.50;39.10
33761;DHT22;20084;47.912;19.044;2022-07-24T14:55:25;31.50;39.00
33761;DHT22;20084;47.912;19.044;2022-07-24T14:57:51;31.40;39.60
33761;DHT22;20084;47.912;19.044;2022-07-24T15:00:16;31.50;39.50
33761;DHT22;20084;47.912;19.044;2022-07-24T15:02:42;31.40;39.90
33761;DHT22;20084;47.912;19.044;2022-07-24T15:05:08;31.40;40.30
33761;DHT22;20084;47.912;19.044;2022-07-24T15:07:33;31.50;39.60
33761;DHT22;20084;47.912;19.044;2022-07-24T15:09:59;31.40;39.80
33761;DHT22;20084;47.912;19.044;2022-07-24T15:12:25;31.40;39.90
33761;DHT22;20084;47.912;19.044;2022-07-24T15:14:50;31.50;39.80
33761;DHT22;20084;47.912;19.044;2022-07-24T15:17:16;31.50;39.90
33761;DHT22;20084;47.912;19.044;2022-07-24T15:19:42;31.50;39.80
33761;DHT22;20084;47.912;19.044;2022-07-24T15:22:07;31.50;40.10
33761;DHT22;20084;47.912;19.044;2022-07-24T15:24:33;31.40;39.20
33761;DHT22;20084;47.912;19.044;2022-07-24T15:26:58;31.40;39.80
33761;DHT22;20084;47.912;19.044;2022-07-24T15:29:24;31.40;39.40
33761;DHT22;20084;47.912;19.044;2022-07-24T15:31:50;31.40;39.20
33761;DHT22;20084;47.912;19.044;2022-07-24T15:34:15;31.40;39.80
33761;DHT22;20084;47.912;19.044;2022-07-24T15:36:41;31.30;39.40
33761;DHT22;20084;47.912;19.044;2022-07-24T15:39:08;31.20;39.00
33761;DHT22;20084;47.912;19.044;2022-07-24T15:41:35;31.20;39.90
33761;DHT22;20084;47.912;19.044;2022-07-24T15:44:01;31.20;39.80
33761;DHT22;20084;47.912;19.044;2022-07-24T15:46:26;31.10;39.90
33761;DHT22;20084;47.912;19.044;2022-07-24T15:48:52;30.90;38.60
33761;DHT22;20084;47.912;19.044;2022-07-24T15:51:18;30.90;39.80
33761;DHT22;20084;47.912;19.044;2022-07-24T15:53:43;30.90;40.10